createdAt,value
2022-11-08T00:00:44.187Z,8.45
2022-11-08T00:05:57.025Z,8.35
2022-11-08T00:08:42.536Z,7.47
2022-11-08T00:11:28.272Z,8.60
2022-11-08T00:13:58.434Z,6.50
2022-11-08T00:16:26.096Z,8.63
2022-11-08T00:18:52.965Z,7.30
2022-11-08T00:21:20.013Z,8.68
2022-11-08T00:23:47.233Z,8.05
2022-11-08T00:26:14.118Z,8.88
2022-11-08T00:28:41.032Z,9.40
2022-11-08T00:31:07.999Z,8.75
2022-11-08T00:33:35.038Z,8.13
2022-11-08T00:36:03.265Z,9.02
2022-11-08T00:38:30.316Z,7.40
2022-11-08T00:40:57.232Z,8.13
2022-11-08T00:43:24.178Z,8.35
2022-11-08T00:45:51.045Z,6.43
2022-11-08T00:48:18.439Z,9.68
2022-11-08T00:50:45.616Z,7.25
2022-11-08T00:53:12.680Z,8.43
2022-11-08T00:55:39.868Z,8.18
2022-11-08T00:58:06.799Z,7.88
2022-11-08T01:00:33.936Z,8.73
2022-11-08T01:03:19.219Z,7.57
2022-11-08T01:05:47.969Z,8.68
2022-11-08T01:08:15.752Z,9.77
2022-11-08T01:10:45.904Z,7.97
2022-11-08T01:13:13.034Z,7.93
2022-11-08T01:15:42.196Z,8.88
2022-11-08T01:18:11.732Z,10.35
2022-11-08T01:20:43.398Z,9.18
2022-11-08T01:23:11.738Z,7.97
2022-11-08T01:25:41.232Z,8.98
2022-11-08T01:28:08.392Z,10.80
2022-11-08T01:30:39.893Z,9.13
2022-11-08T01:33:07.740Z,8.93
2022-11-08T01:35:36.554Z,8.38
2022-11-08T01:38:04.728Z,7.68
2022-11-08T01:40:32.605Z,9.35
2022-11-08T01:42:59.602Z,10.25
2022-11-08T01:46:00.124Z,9.00
2022-11-08T01:51:25.142Z,8.68
2022-11-08T01:56:51.429Z,9.60
2022-11-08T02:11:50.226Z,7.82
2022-11-08T02:30:40.597Z,10.70
2022-11-08T02:33:18.356Z,9.88
2022-11-08T02:41:17.670Z,10.38
2022-11-08T02:49:03.897Z,8.70
2022-11-08T02:51:31.288Z,10.00
2022-11-08T02:53:58.447Z,9.35
2022-11-08T02:56:25.427Z,8.18
2022-11-08T02:58:52.363Z,8.55
2022-11-08T03:01:19.353Z,10.30
2022-11-08T03:03:46.397Z,8.82
2022-11-08T03:06:13.494Z,8.55
2022-11-08T03:08:40.480Z,8.32
2022-11-08T03:11:07.652Z,7.75
2022-11-08T03:13:34.977Z,9.10
2022-11-08T03:16:06.079Z,8.18
2022-11-08T03:18:32.951Z,8.45
2022-11-08T03:21:03.649Z,8.35
2022-11-08T03:23:31.428Z,7.88
2022-11-08T03:26:01.804Z,8.30
2022-11-08T03:28:29.461Z,9.40
2022-11-08T03:30:56.455Z,8.90
2022-11-08T03:33:23.420Z,8.40
2022-11-08T03:35:52.435Z,9.27
2022-11-08T03:38:19.601Z,7.95
2022-11-08T03:40:47.311Z,7.82
2022-11-08T03:43:14.687Z,7.63
2022-11-08T03:45:41.744Z,8.45
2022-11-08T03:48:08.934Z,9.00
2022-11-08T03:50:35.868Z,7.53
2022-11-08T03:53:02.896Z,8.25
2022-11-08T03:55:29.875Z,9.30
2022-11-08T03:57:57.287Z,7.75
2022-11-08T04:00:27.797Z,6.97
2022-11-08T04:02:55.495Z,8.05
2022-11-08T04:05:22.730Z,7.80
2022-11-08T04:07:49.658Z,7.93
2022-11-08T04:10:17.956Z,8.15
2022-11-08T04:13:03.989Z,6.85
2022-11-08T04:15:31.735Z,6.97
2022-11-08T04:18:18.104Z,5.72
2022-11-08T04:21:06.808Z,6.93
2022-11-08T04:23:35.636Z,5.30
2022-11-08T04:26:06.678Z,6.47
2022-11-08T04:28:35.983Z,6.65
2022-11-08T04:31:13.494Z,5.22
2022-11-08T04:33:40.577Z,5.05
2022-11-08T04:36:12.670Z,5.70
2022-11-08T04:38:39.830Z,6.47
2022-11-08T04:41:10.009Z,6.28
2022-11-08T04:43:37.520Z,5.15
2022-11-08T04:46:07.321Z,5.97
2022-11-08T04:48:34.771Z,4.93
2022-11-08T04:51:16.824Z,4.93
2022-11-08T04:53:43.749Z,4.45
2022-11-08T04:56:13.047Z,2.78
2022-11-08T04:58:42.363Z,2.63
2022-11-08T05:01:11.357Z,3.17
2022-11-08T05:03:38.269Z,2.80
2022-11-08T05:06:11.591Z,2.13
2022-11-08T05:08:38.926Z,1.88
2022-11-08T05:11:17.099Z,1.48
2022-11-08T05:13:44.865Z,0.65
2022-11-08T05:16:19.714Z,1.20
2022-11-08T05:18:47.178Z,0.88
2022-11-08T05:21:35.446Z,1.00
2022-11-08T05:24:03.621Z,1.05
2022-11-08T05:26:33.185Z,1.00
2022-11-08T05:29:00.243Z,0.68
2022-11-08T05:31:27.352Z,0.50
2022-11-08T05:33:54.324Z,0.57
2022-11-08T05:36:21.499Z,0.68
2022-11-08T05:38:48.669Z,0.68
2022-11-08T05:41:19.237Z,0.50
2022-11-08T05:43:47.971Z,0.38
2022-11-08T05:46:15.088Z,0.55
2022-11-08T05:48:43.552Z,0.47
2022-11-08T05:51:12.223Z,1.35
2022-11-08T05:53:40.492Z,0.60
2022-11-08T05:56:08.154Z,0.73
2022-11-08T05:58:35.843Z,0.80
2022-11-08T06:01:04.730Z,0.30
2022-11-08T06:03:32.245Z,0.50
2022-11-08T06:06:12.739Z,0.50
2022-11-08T06:08:40.590Z,0.60
2022-11-08T06:11:16.169Z,0.52
2022-11-08T06:13:43.479Z,0.50
2022-11-08T06:16:14.176Z,0.43
2022-11-08T06:18:43.201Z,0.63
2022-11-08T06:21:15.898Z,0.60
2022-11-08T06:23:43.144Z,0.65
2022-11-08T06:26:10.554Z,0.50
2022-11-08T06:28:37.809Z,0.90
2022-11-08T06:31:05.692Z,0.50
2022-11-08T06:33:33.068Z,1.00
2022-11-08T06:36:00.139Z,1.25
2022-11-08T06:38:27.078Z,1.05
2022-11-08T06:40:54.026Z,0.90
2022-11-08T06:43:21.556Z,1.02
2022-11-08T06:45:48.924Z,0.60
2022-11-08T06:48:15.968Z,0.60
2022-11-08T06:50:43.551Z,0.82
2022-11-08T06:53:13.106Z,0.98
2022-11-08T06:55:40.585Z,0.77
2022-11-08T06:58:07.540Z,0.68
2022-11-08T07:00:34.483Z,0.80
2022-11-08T07:03:02.913Z,0.70
2022-11-08T07:05:32.692Z,0.70
2022-11-08T07:08:00.438Z,1.00
2022-11-08T07:10:31.568Z,1.00
2022-11-08T07:13:24.745Z,0.77
2022-11-08T07:15:51.865Z,0.90
2022-11-08T07:18:20.115Z,0.75
2022-11-08T07:20:47.353Z,0.63
2022-11-08T07:23:14.468Z,0.75
2022-11-08T07:25:41.712Z,1.30
2022-11-08T07:28:14.845Z,1.00
2022-11-08T07:30:41.828Z,0.90
2022-11-08T07:33:08.738Z,0.85
2022-11-08T07:35:35.599Z,0.70
2022-11-08T07:38:02.448Z,0.88
2022-11-08T07:40:29.872Z,0.80
2022-11-08T07:43:15.507Z,1.15
2022-11-08T07:45:43.102Z,0.40
2022-11-08T07:48:13.479Z,0.45
2022-11-08T07:50:42.301Z,0.60
2022-11-08T07:53:09.987Z,0.90
2022-11-08T07:55:37.935Z,0.70
2022-11-08T07:58:05.483Z,1.35
2022-11-08T08:00:34.004Z,0.93
2022-11-08T08:03:02.380Z,0.82
2022-11-08T08:05:38.733Z,0.68
2022-11-08T08:08:06.309Z,0.70
2022-11-08T08:10:33.421Z,0.70
2022-11-08T08:13:01.168Z,1.02
2022-11-08T08:15:28.060Z,1.27
2022-11-08T08:17:54.939Z,0.85
2022-11-08T08:20:21.920Z,0.68
2022-11-08T08:22:50.635Z,0.90
2022-11-08T08:25:18.591Z,1.73
2022-11-08T08:27:49.574Z,0.82
2022-11-08T08:30:17.852Z,0.75
2022-11-08T08:32:47.988Z,0.90
2022-11-08T08:35:17.492Z,0.90
2022-11-08T08:37:44.460Z,1.00
2022-11-08T08:40:11.984Z,0.52
2022-11-08T08:42:38.981Z,0.88
2022-11-08T08:45:10.662Z,1.20
2022-11-08T08:47:40.487Z,0.93
